createdAt,value
2023-02-12T00:01:49.122Z,0
2023-02-12T00:07:06.556Z,0
2023-02-12T00:12:26.512Z,0
2023-02-12T00:17:43.984Z,0
2023-02-12T00:23:03.881Z,0
2023-02-12T00:28:21.052Z,0
2023-02-12T00:33:40.853Z,0
2023-02-12T00:39:10.329Z,0
2023-02-12T00:44:27.818Z,0
2023-02-12T00:49:47.921Z,0
2023-02-12T00:55:05.241Z,0
2023-02-12T01:05:43.140Z,0
2023-02-12T01:11:00.497Z,0
2023-02-12T01:16:21.021Z,0
2023-02-12T01:21:40.681Z,0
2023-02-12T01:26:58.179Z,0
2023-02-12T01:32:15.514Z,0
2023-02-12T01:37:33.078Z,0
2023-02-12T01:42:55.413Z,0
2023-02-12T01:48:13.381Z,0
2023-02-12T01:53:36.401Z,0
2023-02-12T01:58:54.050Z,0
2023-02-12T02:04:11.250Z,0
2023-02-12T02:09:28.941Z,0
2023-02-12T02:14:46.285Z,0
2023-02-12T02:20:08.733Z,0
2023-02-12T02:25:26.476Z,0
2023-02-12T02:30:43.743Z,0
2023-02-12T02:36:01.408Z,0
2023-02-12T02:41:18.556Z,0
2023-02-12T02:46:35.758Z,0
2023-02-12T02:51:53.168Z,0
2023-02-12T02:57:10.364Z,0
2023-02-12T03:02:27.839Z,0
2023-02-12T03:07:45.002Z,0
2023-02-12T03:13:02.244Z,0
2023-02-12T03:18:19.768Z,0
2023-02-12T03:23:37.074Z,0
2023-02-12T03:29:00.606Z,0
2023-02-12T03:34:21.651Z,0
2023-02-12T03:39:39.190Z,0
2023-02-12T03:44:58.680Z,0
2023-02-12T03:50:19.541Z,0
2023-02-12T03:55:36.774Z,0
2023-02-12T04:00:54.162Z,0
2023-02-12T04:06:11.587Z,0
2023-02-12T04:11:29.019Z,0
2023-02-12T04:16:46.708Z,0
2023-02-12T04:22:04.638Z,0
2023-02-12T04:27:24.517Z,0
2023-02-12T04:32:41.781Z,0
2023-02-12T04:43:19.153Z,0
2023-02-12T04:54:31.729Z,0
2023-02-12T04:59:49.286Z,0
2023-02-12T05:05:06.587Z,0
2023-02-12T05:10:23.965Z,0
2023-02-12T05:15:43.972Z,0
2023-02-12T05:21:01.375Z,0
2023-02-12T05:31:39.474Z,0
2023-02-12T05:36:56.871Z,0
2023-02-12T05:42:14.121Z,0
2023-02-12T05:47:31.410Z,0
2023-02-12T05:52:51.562Z,0
2023-02-12T05:58:08.940Z,0
2023-02-12T06:03:28.993Z,0
2023-02-12T06:08:46.142Z,0
2023-02-12T06:14:43.715Z,0
2023-02-12T06:20:01.896Z,0
2023-02-12T06:25:19.042Z,0
2023-02-12T06:30:36.273Z,0
2023-02-12T06:35:53.887Z,0.9
2023-02-12T06:41:13.689Z,35.4
2023-02-12T06:46:30.926Z,71.2
2023-02-12T06:51:48.066Z,126.7
2023-02-12T06:57:04.978Z,187.1
2023-02-12T07:02:21.858Z,268.8
2023-02-12T07:07:38.801Z,419.2
2023-02-12T07:12:57.584Z,540.8
2023-02-12T07:18:14.643Z,701.2
2023-02-12T07:23:31.663Z,676.7
2023-02-12T07:28:48.605Z,779.2
2023-02-12T07:34:05.699Z,875
2023-02-12T07:39:28.871Z,1069.2
2023-02-12T07:49:56.303Z,1382.9
2023-02-12T07:55:13.419Z,1786.2
2023-02-12T08:00:30.652Z,1751.7
2023-02-12T08:05:47.868Z,2112.1
2023-02-12T08:11:04.872Z,2336.7
2023-02-12T08:16:22.672Z,2801.7
2023-02-12T08:21:40.038Z,3010.4
2023-02-12T08:26:57.111Z,3262.9
2023-02-12T08:32:17.665Z,3707.1
2023-02-12T08:37:36.366Z,3918.8
2023-02-12T08:42:54.549Z,3939.6
2023-02-12T08:48:11.688Z,4322.5
2023-02-12T08:53:29.280Z,4661.7
2023-02-12T08:58:55.444Z,4730.4
2023-02-12T09:04:12.620Z,5103.8
2023-02-12T09:09:30.032Z,5496.2
2023-02-12T09:14:47.069Z,5420
2023-02-12T09:20:03.911Z,5969.6
2023-02-12T09:25:21.033Z,5672.9
2023-02-12T09:30:38.188Z,5640
2023-02-12T09:35:55.780Z,5888.3
2023-02-12T09:41:15.572Z,6284.2
2023-02-12T09:46:32.666Z,6485.4
2023-02-12T09:51:51.281Z,6793.3
2023-02-12T09:57:09.492Z,6843.3
2023-02-12T10:02:26.552Z,7094.6
2023-02-12T10:13:24.451Z,7216.3
2023-02-12T10:18:41.677Z,7667.5
2023-02-12T10:24:09.228Z,7908.8
2023-02-12T10:29:26.772Z,8158.3
2023-02-12T10:34:43.859Z,8605.4
2023-02-12T10:40:08.468Z,8192.5
2023-02-12T10:45:25.923Z,8530
2023-02-12T10:50:42.879Z,8247.5
2023-02-12T10:55:59.855Z,8295.4
2023-02-12T11:01:17.526Z,8495.8
2023-02-12T11:06:35.042Z,8266.7
2023-02-12T11:11:53.571Z,9042.5
2023-02-12T11:17:10.829Z,9625.8
2023-02-12T11:22:28.025Z,10485
2023-02-12T11:27:45.220Z,10573.7
2023-02-12T11:33:03.250Z,10555.4
2023-02-12T11:38:20.566Z,11740
2023-02-12T11:43:40.602Z,11190
2023-02-12T11:48:57.757Z,11994.2
2023-02-12T11:54:14.725Z,12268.7
2023-02-12T11:59:32.345Z,12188.7
2023-02-12T12:04:49.783Z,11658.3
2023-02-12T12:10:06.682Z,12353.7
2023-02-12T12:15:23.833Z,12281.7
2023-02-12T12:20:41.061Z,11626.7
2023-02-12T12:26:05.704Z,11070.8
2023-02-12T12:31:22.879Z,10867.5
2023-02-12T12:36:40.242Z,11056.7
2023-02-12T12:41:57.283Z,10629.2
2023-02-12T12:47:16.753Z,9977.1
2023-02-12T12:52:33.874Z,10385
2023-02-12T12:57:51.263Z,9630
2023-02-12T13:03:08.352Z,9389.2
2023-02-12T13:08:25.376Z,7903.3
2023-02-12T13:13:42.108Z,7778.8
2023-02-12T13:18:58.819Z,6986.7
2023-02-12T13:24:16.062Z,7711.7
2023-02-12T13:29:33.060Z,7927.5
2023-02-12T13:34:57.576Z,7648.8
2023-02-12T13:40:14.929Z,7083.8
2023-02-12T13:45:43.615Z,6605.8
2023-02-12T13:51:01.384Z,6382.9
2023-02-12T13:56:18.623Z,7060
2023-02-12T14:01:35.756Z,7084.6
2023-02-12T14:06:53.372Z,6727.9
2023-02-12T14:12:10.547Z,6470.8
2023-02-12T14:17:30.479Z,5561.7
2023-02-12T14:22:47.660Z,5334.6
2023-02-12T14:28:05.704Z,5189.2
2023-02-12T14:33:23.505Z,4278.8
2023-02-12T14:38:47.367Z,3967.9
2023-02-12T14:44:04.690Z,3343.3
2023-02-12T14:49:28.920Z,3983.8
2023-02-12T14:54:45.901Z,3174.2
2023-02-12T15:00:03.019Z,3566.3
2023-02-12T15:05:19.999Z,3172.9
2023-02-12T15:10:42.592Z,2629.2
2023-02-12T15:15:59.852Z,2575.4
2023-02-12T15:21:17.137Z,2332.9
2023-02-12T15:26:34.316Z,2336.3
2023-02-12T15:31:51.296Z,2284.2
2023-02-12T15:38:25.845Z,2340.8
2023-02-12T15:43:44.162Z,1995.8
2023-02-12T15:49:01.039Z,1571.7
2023-02-12T15:54:18.040Z,1668.3
2023-02-12T15:59:35.193Z,1263.3
2023-02-12T16:04:52.353Z,1354.6
2023-02-12T16:10:11.740Z,1094.2
2023-02-12T16:15:31.189Z,933.3
2023-02-12T16:20:48.177Z,800
2023-02-12T16:26:05.268Z,593.3
2023-02-12T16:31:23.337Z,444.6
2023-02-12T16:36:40.322Z,337.5
2023-02-12T16:41:57.270Z,240
2023-02-12T16:47:14.430Z,153.3
2023-02-12T16:52:31.694Z,85
2023-02-12T16:57:48.597Z,44.2
2023-02-12T17:08:26.682Z,0
2023-02-12T17:13:44.617Z,0
2023-02-12T17:19:08.652Z,0
2023-02-12T17:24:26.081Z,0
2023-02-12T17:29:43.262Z,0
2023-02-12T17:35:00.865Z,0
2023-02-12T17:40:18.361Z,0
2023-02-12T17:45:35.651Z,0
2023-02-12T17:50:53.392Z,0
2023-02-12T17:56:10.443Z,0
2023-02-12T18:01:27.747Z,0
2023-02-12T18:07:02.356Z,0
2023-02-12T18:12:19.688Z,0
2023-02-12T18:17:37.111Z,0
2023-02-12T18:22:54.352Z,0
2023-02-12T18:28:11.694Z,0
2023-02-12T18:33:29.005Z,0
2023-02-12T18:43:56.136Z,0
2023-02-12T18:49:15.625Z,0
2023-02-12T18:54:32.932Z,0
2023-02-12T18:59:50.052Z,0
2023-02-12T19:05:07.316Z,0
2023-02-12T19:10:24.729Z,0
2023-02-12T19:15:42.726Z,0
2023-02-12T19:21:00.376Z,0
2023-02-12T19:26:19.877Z,0
2023-02-12T19:31:37.493Z,0
2023-02-12T19:36:54.987Z,0
2023-02-12T19:42:14.479Z,0
2023-02-12T19:47:31.788Z,0
2023-02-12T19:58:09.964Z,0
2023-02-12T20:04:04.452Z,0
2023-02-12T20:09:22.807Z,0
2023-02-12T20:14:40.278Z,0
2023-02-12T20:20:02.640Z,0
2023-02-12T20:25:20.150Z,0
2023-02-12T20:30:37.334Z,0
2023-02-12T20:35:54.828Z,0
2023-02-12T20:41:12.075Z,0
2023-02-12T20:46:29.544Z,0
2023-02-12T20:51:46.859Z,0
2023-02-12T20:57:04.347Z,0
2023-02-12T21:02:21.887Z,0
2023-02-12T21:07:39.159Z,0
2023-02-12T21:12:56.359Z,0
2023-02-12T21:18:13.892Z,0
2023-02-12T21:23:31.188Z,0
2023-02-12T21:28:48.389Z,0
2023-02-12T21:34:05.837Z,0
2023-02-12T21:39:23.100Z,0
2023-02-12T21:50:03.610Z,0
2023-02-12T21:55:24.013Z,0
2023-02-12T22:00:41.338Z,0
2023-02-12T22:05:58.752Z,0
2023-02-12T22:11:16.129Z,0
2023-02-12T22:21:53.543Z,0
2023-02-12T22:27:13.565Z,0
2023-02-12T22:32:31.334Z,0
2023-02-12T22:37:48.683Z,0
2023-02-12T22:43:05.965Z,0
2023-02-12T22:48:25.475Z,0
2023-02-12T22:53:42.771Z,0
2023-02-12T22:58:59.988Z,0
2023-02-12T23:04:17.768Z,0
2023-02-12T23:09:42.382Z,0
2023-02-12T23:15:02.218Z,0
2023-02-12T23:20:19.712Z,0
2023-02-12T23:25:37.074Z,0
2023-02-12T23:30:57.438Z,0
2023-02-12T23:36:37.298Z,0
2023-02-12T23:41:54.570Z,0
2023-02-12T23:47:11.874Z,0
2023-02-12T23:52:29.567Z,0
